createdAt,value
2019-01-05T00:00:29.832Z,6.90
2019-01-05T00:03:24.254Z,6.80
2019-01-05T00:06:11.464Z,6.90
2019-01-05T00:08:55.258Z,6.90
2019-01-05T00:12:02.088Z,6.90
2019-01-05T00:14:50.692Z,6.90
2019-01-05T00:17:38.087Z,6.90
2019-01-05T00:20:26.528Z,6.90
2019-01-05T00:23:31.004Z,6.90
2019-01-05T00:26:18.472Z,7.00
2019-01-05T00:29:07.286Z,7.00
2019-01-05T00:32:15.244Z,7.00
2019-01-05T00:35:04.219Z,7.00
2019-01-05T00:38:03.962Z,7.00
2019-01-05T00:41:05.854Z,7.00
2019-01-05T00:43:55.508Z,7.10
2019-01-05T00:46:54.478Z,7.10
2019-01-05T00:49:55.842Z,7.10
2019-01-05T00:52:43.445Z,7.10
2019-01-05T00:55:50.325Z,7.10
2019-01-05T00:58:48.398Z,7.10
2019-01-05T01:01:42.690Z,7.10
2019-01-05T01:04:37.087Z,7.10
2019-01-05T01:07:32.740Z,7.10
2019-01-05T01:10:20.454Z,7.10
2019-01-05T01:13:07.413Z,7.10
2019-01-05T01:15:59.576Z,7.10
2019-01-05T01:18:51.131Z,7.10
2019-01-05T01:21:48.914Z,7.20
2019-01-05T01:24:55.908Z,7.20
2019-01-05T01:27:42.709Z,7.20
2019-01-05T01:30:43.082Z,7.20
2019-01-05T01:33:31.235Z,7.20
2019-01-05T01:36:34.907Z,7.30
2019-01-05T01:39:18.588Z,7.30
2019-01-05T01:42:06.352Z,7.30
2019-01-05T01:45:04.485Z,7.30
2019-01-05T01:47:54.186Z,7.40
2019-01-05T01:50:42.583Z,7.40
2019-01-05T01:53:36.904Z,7.40
2019-01-05T01:56:25.393Z,7.40
2019-01-05T01:59:15.417Z,7.40
2019-01-05T02:02:14.610Z,7.50
2019-01-05T02:05:06.148Z,7.40
2019-01-05T02:07:58.183Z,7.50
2019-01-05T02:10:48.568Z,7.40
2019-01-05T02:13:42.668Z,7.50
2019-01-05T02:16:33.668Z,7.40
2019-01-05T02:19:39.039Z,7.50
2019-01-05T02:23:15.432Z,7.40
2019-01-05T02:26:22.799Z,7.40
2019-01-05T02:29:57.609Z,7.50
2019-01-05T02:33:32.136Z,7.50
2019-01-05T02:36:47.875Z,7.40
2019-01-05T02:40:02.337Z,7.50
2019-01-05T02:43:29.440Z,7.50
2019-01-05T02:47:04.118Z,7.50
2019-01-05T02:50:57.718Z,7.50
2019-01-05T02:54:29.568Z,7.50
2019-01-05T02:58:02.969Z,7.50
2019-01-05T03:01:40.621Z,7.50
2019-01-05T03:04:56.742Z,7.40
2019-01-05T03:08:21.162Z,7.50
2019-01-05T03:11:50.452Z,7.50
2019-01-05T03:15:17.884Z,7.50
2019-01-05T03:18:53.382Z,7.50
2019-01-05T03:22:18.696Z,7.50
2019-01-05T03:25:38.268Z,7.50
2019-01-05T03:28:48.835Z,7.50
2019-01-05T03:32:42.259Z,7.50
2019-01-05T03:36:18.385Z,7.50
2019-01-05T03:40:11.483Z,7.50
2019-01-05T03:43:39.181Z,7.50
2019-01-05T03:47:07.435Z,7.50
2019-01-05T03:50:42.321Z,7.50
2019-01-05T03:54:16.111Z,7.50
2019-01-05T03:57:51.082Z,7.50
2019-01-05T04:01:10.057Z,7.50
2019-01-05T04:04:48.645Z,7.50
2019-01-05T04:08:02.380Z,7.50
2019-01-05T04:12:01.189Z,7.50
2019-01-05T04:15:41.135Z,7.60
2019-01-05T04:18:50.162Z,7.60
2019-01-05T04:22:55.106Z,7.60
2019-01-05T04:26:20.592Z,7.60
2019-01-05T04:29:22.939Z,7.60
2019-01-05T04:32:50.867Z,7.60
2019-01-05T04:36:50.605Z,7.70
2019-01-05T04:40:34.921Z,7.70
2019-01-05T04:44:02.107Z,7.60
2019-01-05T04:47:37.143Z,7.70
2019-01-05T04:51:29.922Z,7.70
2019-01-05T04:55:08.140Z,7.70
2019-01-05T04:58:37.513Z,7.70
2019-01-05T05:02:02.787Z,7.70
2019-01-05T05:05:58.041Z,7.70
2019-01-05T05:09:30.083Z,7.70
2019-01-05T05:16:25.430Z,7.70
2019-01-05T05:19:46.718Z,7.70
2019-01-05T05:23:26.990Z,7.70
2019-01-05T05:27:04.837Z,7.70
2019-01-05T05:31:04.349Z,7.80
2019-01-05T05:34:38.991Z,7.80
2019-01-05T05:38:11.200Z,7.70
2019-01-05T05:41:42.225Z,7.70
2019-01-05T05:45:11.572Z,7.70
2019-01-05T05:48:45.759Z,7.80
2019-01-05T05:52:10.233Z,7.70
2019-01-05T05:55:35.280Z,7.70
2019-01-05T05:58:52.483Z,7.70
2019-01-05T06:02:01.799Z,7.70
2019-01-05T06:05:25.607Z,7.80
2019-01-05T06:09:10.253Z,7.70
2019-01-05T06:12:37.297Z,7.80
2019-01-05T06:16:02.132Z,7.80
2019-01-05T06:19:48.747Z,7.80
2019-01-05T06:23:19.143Z,7.80
2019-01-05T06:27:06.679Z,7.80
2019-01-05T06:30:25.298Z,7.80
2019-01-05T06:33:44.906Z,7.80
2019-01-05T06:37:20.334Z,7.80
2019-01-05T06:40:49.699Z,7.70
2019-01-05T06:44:20.147Z,7.70
2019-01-05T06:47:50.277Z,7.70
2019-01-05T06:51:25.743Z,7.70
2019-01-05T06:55:08.259Z,7.70
2019-01-05T06:58:36.925Z,7.70
2019-01-05T07:02:18.568Z,7.70
2019-01-05T07:06:00.865Z,7.70
2019-01-05T07:09:30.651Z,7.60
2019-01-05T07:12:53.299Z,7.70
2019-01-05T07:16:31.600Z,7.60
2019-01-05T07:19:56.096Z,7.70
2019-01-05T07:23:09.821Z,7.70
2019-01-05T07:26:53.057Z,7.70
2019-01-05T07:30:16.205Z,7.70
2019-01-05T07:33:52.614Z,7.70
2019-01-05T07:37:41.647Z,7.70
2019-01-05T07:41:43.162Z,7.70
2019-01-05T07:45:04.696Z,7.70
2019-01-05T07:48:27.635Z,7.70
2019-01-05T07:52:03.747Z,7.70
2019-01-05T07:55:42.112Z,7.70
2019-01-05T07:59:03.391Z,7.70
2019-01-05T08:02:57.539Z,7.70
2019-01-05T08:06:28.491Z,7.70
2019-01-05T08:10:27.838Z,7.70
2019-01-05T08:14:00.984Z,7.70
2019-01-05T08:17:44.408Z,7.70
2019-01-05T08:21:08.166Z,7.70
2019-01-05T08:24:35.402Z,7.70
2019-01-05T08:28:08.336Z,7.70
2019-01-05T08:32:01.729Z,7.70
2019-01-05T08:35:45.903Z,7.70
2019-01-05T08:39:18.599Z,7.70
2019-01-05T08:42:52.992Z,7.70
2019-01-05T08:46:16.909Z,7.70
2019-01-05T08:49:28.487Z,7.80
2019-01-05T08:52:44.214Z,7.70
2019-01-05T08:56:15.376Z,7.80
2019-01-05T08:59:56.882Z,7.80
2019-01-05T09:03:54.625Z,7.80
2019-01-05T09:07:21.731Z,7.80
2019-01-05T09:11:00.465Z,7.80
2019-01-05T09:14:23.441Z,7.80
2019-01-05T09:17:44.045Z,7.80
2019-01-05T09:21:06.289Z,7.80
2019-01-05T09:24:55.067Z,7.80
2019-01-05T09:28:56.213Z,7.80
2019-01-05T09:32:21.314Z,7.80
2019-01-05T09:35:44.603Z,7.80
2019-01-05T09:39:08.524Z,7.80
2019-01-05T09:42:29.266Z,7.80
2019-01-05T09:45:58.429Z,7.80
2019-01-05T09:49:38.165Z,7.80
2019-01-05T09:53:12.341Z,7.80
2019-01-05T09:56:23.763Z,7.80
2019-01-05T09:59:58.137Z,7.80
2019-01-05T10:03:28.846Z,7.80
2019-01-05T10:06:45.780Z,7.80
2019-01-05T10:10:19.780Z,7.80
2019-01-05T10:13:58.605Z,7.80
2019-01-05T10:17:16.503Z,7.80
2019-01-05T10:20:43.008Z,7.80
2019-01-05T10:24:08.932Z,7.80
2019-01-05T10:27:24.871Z,7.80
2019-01-05T10:31:02.612Z,7.80
2019-01-05T10:34:42.163Z,7.80
2019-01-05T10:38:25.613Z,7.80
2019-01-05T10:41:40.213Z,7.80
2019-01-05T10:45:04.161Z,7.80
2019-01-05T10:48:26.341Z,7.90
2019-01-05T10:52:19.446Z,7.90
2019-01-05T10:55:51.586Z,7.90
2019-01-05T10:59:12.417Z,7.90
2019-01-05T11:02:39.117Z,7.90
2019-01-05T11:06:02.050Z,7.80
2019-01-05T11:09:27.491Z,7.90
2019-01-05T11:12:59.810Z,7.90
2019-01-05T11:16:33.474Z,7.90
2019-01-05T11:20:35.739Z,7.90
2019-01-05T11:24:33.938Z,7.90
2019-01-05T11:28:03.346Z,8.00
2019-01-05T11:31:29.013Z,8.00
2019-01-05T11:34:59.403Z,8.00
2019-01-05T11:38:47.019Z,8.00
2019-01-05T11:42:21.387Z,8.00
2019-01-05T11:45:56.316Z,8.00
2019-01-05T11:49:16.950Z,8.00
2019-01-05T11:52:37.945Z,8.00
2019-01-05T11:56:14.391Z,8.00
2019-01-05T11:59:55.098Z,8.00
2019-01-05T12:03:19.874Z,8.00
2019-01-05T12:07:02.794Z,8.00
2019-01-05T12:10:44.563Z,8.00
2019-01-05T12:14:07.663Z,8.00
2019-01-05T12:17:43.920Z,8.00
2019-01-05T12:21:13.922Z,8.00
2019-01-05T12:24:51.266Z,8.00
2019-01-05T12:28:04.363Z,8.00
2019-01-05T12:31:31.580Z,8.00
2019-01-05T12:34:50.174Z,8.00
2019-01-05T12:37:59.376Z,8.00
2019-01-05T12:41:24.918Z,8.00
2019-01-05T12:44:59.047Z,8.00
2019-01-05T12:48:05.114Z,8.00
2019-01-05T12:51:37.921Z,8.00
2019-01-05T12:55:29.995Z,8.00
2019-01-05T12:59:02.156Z,8.00
2019-01-05T13:02:22.062Z,8.00
2019-01-05T13:05:46.855Z,8.00
2019-01-05T13:09:28.518Z,8.00
2019-01-05T13:12:54.734Z,8.00
2019-01-05T13:16:23.888Z,8.00
2019-01-05T13:19:40.433Z,8.00
2019-01-05T13:23:00.280Z,8.00
2019-01-05T13:26:27.584Z,8.00
2019-01-05T13:29:55.521Z,8.00
2019-01-05T13:33:23.194Z,8.10
2019-01-05T13:36:50.423Z,8.10
2019-01-05T13:40:17.653Z,8.10
2019-01-05T13:44:04.650Z,8.10
2019-01-05T13:47:46.378Z,8.10
2019-01-05T13:51:10.129Z,8.10
2019-01-05T13:54:17.620Z,8.10
2019-01-05T13:57:14.818Z,8.10
2019-01-05T14:00:21.288Z,8.10
2019-01-05T14:03:05.348Z,8.10
2019-01-05T14:06:05.342Z,8.10
2019-01-05T14:08:52.362Z,8.10
2019-01-05T14:11:40.746Z,8.10
2019-01-05T14:14:32.504Z,8.10
2019-01-05T14:17:19.928Z,8.10
2019-01-05T14:20:23.702Z,8.10
2019-01-05T14:23:19.271Z,8.10
2019-01-05T14:26:06.755Z,8.10
2019-01-05T14:29:00.903Z,8.00
2019-01-05T14:31:56.492Z,8.00
2019-01-05T14:34:37.887Z,8.00
2019-01-05T14:37:25.238Z,8.00
2019-01-05T14:40:03.201Z,8.00
2019-01-05T14:42:51.610Z,8.00
2019-01-05T14:45:47.061Z,8.00
2019-01-05T14:48:52.223Z,8.00
2019-01-05T14:51:50.483Z,8.00
2019-01-05T14:54:38.834Z,8.00
2019-01-05T14:57:26.117Z,7.90
2019-01-05T15:00:13.236Z,7.90
2019-01-05T15:02:56.717Z,7.90
2019-01-05T15:05:51.199Z,7.90
2019-01-05T15:08:49.898Z,7.90
2019-01-05T15:11:38.278Z,7.90
2019-01-05T15:14:40.506Z,7.90
2019-01-05T15:17:27.814Z,7.90
2019-01-05T15:20:14.810Z,7.90
2019-01-05T15:23:18.330Z,7.90
2019-01-05T15:26:18.520Z,7.80
2019-01-05T15:29:07.255Z,7.80
2019-01-05T15:32:01.998Z,7.80
2019-01-05T15:35:02.694Z,7.80
2019-01-05T15:38:03.068Z,7.80
2019-01-05T15:40:59.195Z,7.80
2019-01-05T15:43:46.268Z,7.80
2019-01-05T15:46:33.658Z,7.80
2019-01-05T15:49:26.974Z,7.80
2019-01-05T15:52:13.903Z,7.80
2019-01-05T15:55:20.429Z,7.80
2019-01-05T15:58:07.323Z,7.80
2019-01-05T16:00:54.243Z,7.70
2019-01-05T16:03:40.020Z,7.70
2019-01-05T16:06:27.192Z,7.70
2019-01-05T16:09:15.382Z,7.80
2019-01-05T16:12:21.844Z,7.80
2019-01-05T16:15:19.128Z,7.70
2019-01-05T16:18:08.244Z,7.80
2019-01-05T16:21:15.068Z,7.70
2019-01-05T16:24:21.501Z,7.70
2019-01-05T16:27:08.504Z,7.70
2019-01-05T16:30:00.374Z,7.70
2019-01-05T16:32:41.254Z,7.60
2019-01-05T16:35:33.650Z,7.60
2019-01-05T16:38:25.963Z,7.60
2019-01-05T16:41:09.740Z,7.60
2019-01-05T16:44:06.969Z,7.60
2019-01-05T16:46:54.210Z,7.60
2019-01-05T16:49:48.647Z,7.60
2019-01-05T16:52:55.529Z,7.60
2019-01-05T16:55:49.657Z,7.60
2019-01-05T16:58:43.872Z,7.60
2019-01-05T17:01:38.381Z,7.60
2019-01-05T17:04:25.421Z,7.60
2019-01-05T17:07:12.630Z,7.60
2019-01-05T17:10:16.001Z,7.50
2019-01-05T17:13:03.880Z,7.50
2019-01-05T17:16:01.413Z,7.50
2019-01-05T17:19:05.139Z,7.50
2019-01-05T17:21:52.256Z,7.50
2019-01-05T17:24:50.076Z,7.40
2019-01-05T17:27:41.873Z,7.40
2019-01-05T17:30:24.845Z,7.40
2019-01-05T17:33:19.037Z,7.40
2019-01-05T17:36:13.300Z,7.40
2019-01-05T17:39:20.191Z,7.30
2019-01-05T17:42:07.391Z,7.30
2019-01-05T17:45:03.162Z,7.30
2019-01-05T17:47:50.764Z,7.30
2019-01-05T17:50:38.278Z,7.30
2019-01-05T17:53:26.746Z,7.30
2019-01-05T17:56:14.328Z,7.30
2019-01-05T17:59:04.541Z,7.30
2019-01-05T18:02:05.240Z,7.30
2019-01-05T18:04:52.511Z,7.30
2019-01-05T18:07:41.197Z,7.30
2019-01-05T18:10:28.473Z,7.30
2019-01-05T18:13:17.300Z,7.30
2019-01-05T18:16:14.694Z,7.30
2019-01-05T18:19:03.088Z,7.30
2019-01-05T18:22:00.811Z,7.30
2019-01-05T18:24:48.102Z,7.30
2019-01-05T18:27:45.422Z,7.30
2019-01-05T18:30:32.436Z,7.30
2019-01-05T18:33:19.528Z,7.30
2019-01-05T18:36:13.991Z,7.30
2019-01-05T18:39:01.202Z,7.30
2019-01-05T18:41:48.402Z,7.30
2019-01-05T18:44:55.047Z,7.30
2019-01-05T18:47:42.255Z,7.30
2019-01-05T18:50:46.678Z,7.30
2019-01-05T18:53:53.486Z,7.30
2019-01-05T18:56:38.835Z,7.30
2019-01-05T18:59:26.095Z,7.30
2019-01-05T19:02:23.644Z,7.30
2019-01-05T19:05:10.645Z,7.30
2019-01-05T19:08:02.146Z,7.30
2019-01-05T19:10:55.999Z,7.30
2019-01-05T19:13:45.785Z,7.30
2019-01-05T19:16:33.086Z,7.30
2019-01-05T19:19:20.969Z,7.30
2019-01-05T19:22:08.163Z,7.30
2019-01-05T19:25:08.686Z,7.30
2019-01-05T19:27:56.035Z,7.30
2019-01-05T19:30:59.469Z,7.30
2019-01-05T19:33:47.882Z,7.30
2019-01-05T19:36:42.017Z,7.30
2019-01-05T19:39:34.641Z,7.30
2019-01-05T19:42:16.689Z,7.30
2019-01-05T19:45:17.051Z,7.30
2019-01-05T19:48:17.715Z,7.30
2019-01-05T19:51:15.759Z,7.30
2019-01-05T19:54:06.905Z,7.30
2019-01-05T19:57:07.431Z,7.30
2019-01-05T19:59:55.001Z,7.30
2019-01-05T20:02:46.175Z,7.30
2019-01-05T20:05:33.405Z,7.30
2019-01-05T20:08:20.639Z,7.30
2019-01-05T20:11:18.347Z,7.30
2019-01-05T20:14:05.745Z,7.30
2019-01-05T20:17:12.416Z,7.30
2019-01-05T20:20:03.987Z,7.30
2019-01-05T20:22:52.429Z,7.30
2019-01-05T20:25:49.873Z,7.30
2019-01-05T20:28:43.982Z,7.30
2019-01-05T20:31:41.402Z,7.30
2019-01-05T20:34:42.909Z,7.30
2019-01-05T20:37:33.991Z,7.30
2019-01-05T20:40:25.409Z,7.30
2019-01-05T20:43:10.317Z,7.30
2019-01-05T20:46:01.781Z,7.30
2019-01-05T20:48:48.879Z,7.30
2019-01-05T20:51:35.880Z,7.30
2019-01-05T20:54:23.274Z,7.30
2019-01-05T20:57:11.695Z,7.30
2019-01-05T20:59:53.158Z,7.30
2019-01-05T21:02:50.559Z,7.30
2019-01-05T21:05:38.134Z,7.30
2019-01-05T21:08:35.523Z,7.40
2019-01-05T21:11:26.777Z,7.40
2019-01-05T21:14:13.906Z,7.40
2019-01-05T21:17:02.540Z,7.40
2019-01-05T21:20:04.498Z,7.40
2019-01-05T21:23:03.718Z,7.40
2019-01-05T21:25:50.576Z,7.40
2019-01-05T21:28:37.874Z,7.40
2019-01-05T21:31:26.268Z,7.40
2019-01-05T21:34:13.380Z,7.40
2019-01-05T21:37:00.889Z,7.40
2019-01-05T21:39:53.010Z,7.40
2019-01-05T21:42:54.043Z,7.40
2019-01-05T21:45:41.237Z,7.40
2019-01-05T21:48:28.712Z,7.40
2019-01-05T21:51:15.537Z,7.40
2019-01-05T21:54:06.966Z,7.40
2019-01-05T21:57:12.164Z,7.40
2019-01-05T21:59:59.481Z,7.40
2019-01-05T22:03:03.167Z,7.50
2019-01-05T22:05:51.555Z,7.40
2019-01-05T22:08:40.674Z,7.40
2019-01-05T22:11:24.036Z,7.40
2019-01-05T22:14:15.964Z,7.40
2019-01-05T22:17:22.404Z,7.40
2019-01-05T22:20:13.312Z,7.40
2019-01-05T22:23:16.712Z,7.40
2019-01-05T22:26:03.814Z,7.40
2019-01-05T22:28:52.600Z,7.40
2019-01-05T22:31:39.862Z,7.50
2019-01-05T22:34:27.079Z,7.50
2019-01-05T22:37:14.494Z,7.50
2019-01-05T22:40:08.815Z,7.40
2019-01-05T22:42:56.172Z,7.40
2019-01-05T22:45:44.522Z,7.50
2019-01-05T22:48:33.181Z,7.50
2019-01-05T22:51:23.702Z,7.50
2019-01-05T22:54:10.934Z,7.40
2019-01-05T22:56:58.274Z,7.50
2019-01-05T22:59:52.874Z,7.50
2019-01-05T23:02:40.217Z,7.50
2019-01-05T23:05:20.883Z,7.50
2019-01-05T23:08:24.612Z,7.50
2019-01-05T23:11:12.899Z,7.40
2019-01-05T23:14:00.393Z,7.40
2019-01-05T23:16:47.679Z,7.40
2019-01-05T23:19:45.290Z,7.40
2019-01-05T23:22:34.318Z,7.40
2019-01-05T23:25:28.847Z,7.50
2019-01-05T23:28:16.246Z,7.40
2019-01-05T23:31:17.000Z,7.50
2019-01-05T23:34:21.229Z,7.40
2019-01-05T23:37:08.316Z,7.40
2019-01-05T23:40:08.744Z,7.40
2019-01-05T23:42:56.115Z,7.40
2019-01-05T23:45:43.514Z,7.40
2019-01-05T23:48:21.814Z,7.40
2019-01-05T23:51:10.119Z,7.40
2019-01-05T23:54:01.202Z,7.40
2019-01-05T23:56:48.510Z,7.40
2019-01-05T23:59:42.684Z,7.40
